createdAt,value
2018-08-07T00:00:16.084Z,21.80
2018-08-07T00:01:15.888Z,21.79
2018-08-07T00:02:16.122Z,21.75
2018-08-07T00:03:16.114Z,21.76
2018-08-07T00:04:16.105Z,21.76
2018-08-07T00:05:15.911Z,21.70
2018-08-07T00:06:15.929Z,21.62
2018-08-07T00:07:15.921Z,21.61
2018-08-07T00:08:15.926Z,21.61
2018-08-07T00:09:15.930Z,21.54
2018-08-07T00:10:15.936Z,21.42
2018-08-07T00:11:15.941Z,21.35
2018-08-07T00:12:15.949Z,21.20
2018-08-07T00:13:16.155Z,21.20
2018-08-07T00:14:15.970Z,21.21
2018-08-07T00:15:15.964Z,21.20
2018-08-07T00:16:15.982Z,21.11
2018-08-07T00:17:15.975Z,21.03
2018-08-07T00:18:15.983Z,20.97
2018-08-07T00:19:15.985Z,20.99
2018-08-07T00:20:15.990Z,20.88
2018-08-07T00:21:15.997Z,20.93
2018-08-07T00:22:16.012Z,20.95
2018-08-07T00:23:16.006Z,20.82
2018-08-07T00:24:16.027Z,20.88
2018-08-07T00:25:16.018Z,20.87
2018-08-07T00:26:16.226Z,20.82
2018-08-07T00:27:16.041Z,20.81
2018-08-07T00:28:16.237Z,20.85
2018-08-07T00:29:16.041Z,20.84
2018-08-07T00:30:16.070Z,20.92
2018-08-07T00:31:16.050Z,20.88
2018-08-07T00:32:16.067Z,20.87
2018-08-07T00:33:16.062Z,20.87
2018-08-07T00:34:16.067Z,20.88
2018-08-07T00:35:16.081Z,20.88
2018-08-07T00:36:16.076Z,20.96
2018-08-07T00:37:16.084Z,20.93
2018-08-07T00:38:16.098Z,20.85
2018-08-07T00:39:16.294Z,20.85
2018-08-07T00:40:16.299Z,20.87
2018-08-07T00:41:16.104Z,20.88
2018-08-07T00:42:16.109Z,20.82
2018-08-07T00:43:16.115Z,20.84
2018-08-07T00:44:16.119Z,20.82
2018-08-07T00:45:16.124Z,20.78
2018-08-07T00:46:16.143Z,20.81
2018-08-07T00:47:16.161Z,20.80
2018-08-07T00:48:16.153Z,20.77
2018-08-07T00:49:16.344Z,20.77
2018-08-07T00:50:16.148Z,20.77
2018-08-07T00:51:16.152Z,20.92
2018-08-07T00:52:16.361Z,21.00
2018-08-07T00:53:16.180Z,20.97
2018-08-07T00:54:16.369Z,21.06
2018-08-07T00:55:16.207Z,21.15
2018-08-07T00:56:16.192Z,21.24
2018-08-07T00:57:16.194Z,21.24
2018-08-07T00:58:16.392Z,21.24
2018-08-07T00:59:16.193Z,21.24
2018-08-07T01:00:16.199Z,21.18
2018-08-07T01:01:16.205Z,21.29
2018-08-07T01:02:16.211Z,21.32
2018-08-07T01:03:16.250Z,21.24
2018-08-07T01:04:16.219Z,21.27
2018-08-07T01:05:16.231Z,21.20
2018-08-07T01:06:16.434Z,21.25
2018-08-07T01:07:16.435Z,21.22
2018-08-07T01:08:16.444Z,21.11
2018-08-07T01:09:16.449Z,21.05
2018-08-07T01:10:16.251Z,20.97
2018-08-07T01:11:16.257Z,20.93
2018-08-07T01:12:16.260Z,20.75
2018-08-07T01:13:16.267Z,20.66
2018-08-07T01:14:16.282Z,20.50
2018-08-07T01:15:16.477Z,20.44
2018-08-07T01:16:16.281Z,20.39
2018-08-07T01:17:16.491Z,20.34
2018-08-07T01:18:16.511Z,20.24
2018-08-07T01:19:16.499Z,20.26
2018-08-07T01:20:16.503Z,20.16
2018-08-07T01:21:16.321Z,20.19
2018-08-07T01:22:16.322Z,20.11
2018-08-07T01:23:16.520Z,20.18
2018-08-07T01:24:16.333Z,20.13
2018-08-07T01:25:16.326Z,20.10
2018-08-07T01:26:16.333Z,20.16
2018-08-07T01:27:16.336Z,20.11
2018-08-07T01:28:16.374Z,20.19
2018-08-07T01:29:16.349Z,20.10
2018-08-07T01:30:16.364Z,20.09
2018-08-07T01:31:16.391Z,20.11
2018-08-07T01:32:16.363Z,19.99
2018-08-07T01:33:16.579Z,20.02
2018-08-07T01:34:16.573Z,19.84
2018-08-07T01:35:16.376Z,19.88
2018-08-07T01:36:16.408Z,19.84
2018-08-07T01:37:16.399Z,19.73
2018-08-07T01:38:16.406Z,19.70
2018-08-07T01:39:16.409Z,19.70
2018-08-07T01:40:16.414Z,19.63
2018-08-07T01:41:16.609Z,19.67
2018-08-07T01:42:16.409Z,19.59
2018-08-07T01:43:16.429Z,19.58
2018-08-07T01:44:16.440Z,19.55
2018-08-07T01:45:16.442Z,19.52
2018-08-07T01:46:16.638Z,19.47
2018-08-07T01:47:16.444Z,19.37
2018-08-07T01:48:16.441Z,19.30
2018-08-07T01:49:16.444Z,19.27
2018-08-07T01:50:16.462Z,19.36
2018-08-07T01:51:16.465Z,19.34
2018-08-07T01:52:16.669Z,19.36
2018-08-07T01:53:16.476Z,19.44
2018-08-07T01:54:16.467Z,19.40
2018-08-07T01:55:16.468Z,19.49
2018-08-07T01:56:16.476Z,19.58
2018-08-07T01:57:16.478Z,19.63
2018-08-07T01:58:16.515Z,19.59
2018-08-07T01:59:16.487Z,19.70
2018-08-07T02:00:16.492Z,19.58
2018-08-07T02:01:16.498Z,19.55
2018-08-07T02:02:16.705Z,19.56
2018-08-07T02:03:16.508Z,19.56
2018-08-07T02:04:16.521Z,19.48
2018-08-07T02:05:16.720Z,19.44
2018-08-07T02:06:16.532Z,19.47
2018-08-07T02:07:16.525Z,19.51
2018-08-07T02:08:16.730Z,19.47
2018-08-07T02:09:16.534Z,19.40
2018-08-07T02:10:16.547Z,19.39
2018-08-07T02:11:16.542Z,19.40
2018-08-07T02:12:16.576Z,19.29
2018-08-07T02:13:16.552Z,19.29
2018-08-07T02:14:16.759Z,19.24
2018-08-07T02:15:16.562Z,19.22
2018-08-07T02:16:16.565Z,19.14
2018-08-07T02:17:16.570Z,19.11
2018-08-07T02:18:16.791Z,19.11
2018-08-07T02:19:16.581Z,19.11
2018-08-07T02:20:16.588Z,19.11
2018-08-07T02:21:16.598Z,19.08
2018-08-07T02:22:16.592Z,19.08
2018-08-07T02:23:16.600Z,18.93
2018-08-07T02:24:16.833Z,18.96
2018-08-07T02:25:16.617Z,18.96
2018-08-07T02:26:16.609Z,18.96
2018-08-07T02:27:16.614Z,19.02
2018-08-07T02:28:16.617Z,18.93
2018-08-07T02:29:16.634Z,18.98
2018-08-07T02:30:16.663Z,18.98
2018-08-07T02:31:16.629Z,19.04
2018-08-07T02:32:16.634Z,19.08
2018-08-07T02:33:16.671Z,19.12
2018-08-07T02:34:16.655Z,19.08
2018-08-07T02:35:16.672Z,19.07
2018-08-07T02:36:16.653Z,19.08
2018-08-07T02:37:16.667Z,19.09
2018-08-07T02:38:16.890Z,18.96
2018-08-07T02:39:16.863Z,18.88
2018-08-07T02:40:16.675Z,18.84
2018-08-07T02:41:16.675Z,18.83
2018-08-07T02:42:16.678Z,18.84
2018-08-07T02:43:16.902Z,18.80
2018-08-07T02:44:16.688Z,18.83
2018-08-07T02:45:16.703Z,18.89
2018-08-07T02:46:16.692Z,18.90
2018-08-07T02:47:16.707Z,18.96
2018-08-07T02:48:16.913Z,18.96
2018-08-07T02:49:16.716Z,19.09
2018-08-07T02:50:16.925Z,19.16
2018-08-07T02:51:16.931Z,19.16
2018-08-07T02:52:16.930Z,19.26
2018-08-07T02:53:16.740Z,19.33
2018-08-07T02:54:16.929Z,19.36
2018-08-07T02:55:16.760Z,19.40
2018-08-07T02:56:16.955Z,19.37
2018-08-07T02:57:16.743Z,19.33
2018-08-07T02:58:16.783Z,19.30
2018-08-07T02:59:16.752Z,19.16
2018-08-07T03:00:16.752Z,19.08
2018-08-07T03:01:16.758Z,18.93
2018-08-07T03:02:16.973Z,18.81
2018-08-07T03:03:16.972Z,18.77
2018-08-07T03:04:16.782Z,18.59
2018-08-07T03:05:16.776Z,18.62
2018-08-07T03:06:16.795Z,18.62
2018-08-07T03:07:16.811Z,18.55
2018-08-07T03:08:16.796Z,18.53
2018-08-07T03:09:16.792Z,18.47
2018-08-07T03:10:16.808Z,18.55
2018-08-07T03:11:16.799Z,18.58
2018-08-07T03:12:16.802Z,18.56
2018-08-07T03:13:16.814Z,18.49
2018-08-07T03:14:16.812Z,18.52
2018-08-07T03:15:16.825Z,18.47
2018-08-07T03:16:16.818Z,18.35
2018-08-07T03:17:16.822Z,18.41
2018-08-07T03:18:16.826Z,18.45
2018-08-07T03:19:16.831Z,18.41
2018-08-07T03:20:16.835Z,18.44
2018-08-07T03:21:16.839Z,18.37
2018-08-07T03:22:17.060Z,18.34
2018-08-07T03:23:16.848Z,18.34
2018-08-07T03:24:16.879Z,18.31
2018-08-07T03:25:16.888Z,18.40
2018-08-07T03:26:16.883Z,18.38
2018-08-07T03:27:17.096Z,18.41
2018-08-07T03:28:16.867Z,18.31
2018-08-07T03:29:16.873Z,18.34
2018-08-07T03:30:16.873Z,18.35
2018-08-07T03:31:16.877Z,18.35
2018-08-07T03:32:16.892Z,18.26
2018-08-07T03:33:16.884Z,18.28
2018-08-07T03:34:16.905Z,18.35
2018-08-07T03:35:16.905Z,18.28
2018-08-07T03:36:16.909Z,18.37
2018-08-07T03:37:17.113Z,18.31
2018-08-07T03:38:16.921Z,18.37
2018-08-07T03:39:17.120Z,18.25
2018-08-07T03:40:16.914Z,18.26
2018-08-07T03:41:16.943Z,18.20
2018-08-07T03:42:16.920Z,18.20
2018-08-07T03:43:16.926Z,18.15
2018-08-07T03:44:16.926Z,18.22
2018-08-07T03:45:17.134Z,18.16
2018-08-07T03:46:16.948Z,18.19
2018-08-07T03:47:16.952Z,18.20
2018-08-07T03:48:16.940Z,18.18
2018-08-07T03:49:17.019Z,18.13
2018-08-07T03:50:16.949Z,18.05
2018-08-07T03:51:16.955Z,18.13
2018-08-07T03:52:16.957Z,18.08
2018-08-07T03:53:16.974Z,18.10
2018-08-07T03:54:16.977Z,18.13
2018-08-07T03:55:16.978Z,18.25
2018-08-07T03:56:16.974Z,18.19
2018-08-07T03:57:17.178Z,18.08
2018-08-07T03:58:16.995Z,18.15
2018-08-07T03:59:16.984Z,18.01
2018-08-07T04:00:17.200Z,18.01
2018-08-07T04:01:17.216Z,17.98
2018-08-07T04:02:16.996Z,17.98
2018-08-07T04:03:16.997Z,17.94
2018-08-07T04:04:17.003Z,17.95
2018-08-07T04:05:17.234Z,17.98
2018-08-07T04:06:17.033Z,18.00
2018-08-07T04:07:17.247Z,17.98
2018-08-07T04:08:17.029Z,17.98
2018-08-07T04:09:17.023Z,18.04
2018-08-07T04:10:17.024Z,18.04
2018-08-07T04:11:17.026Z,18.00
2018-08-07T04:12:17.232Z,17.97
2018-08-07T04:13:17.064Z,17.94
2018-08-07T04:14:17.039Z,17.87
2018-08-07T04:15:17.044Z,17.87
2018-08-07T04:16:17.047Z,17.89
2018-08-07T04:17:17.051Z,17.83
2018-08-07T04:18:17.057Z,17.87
2018-08-07T04:19:17.258Z,17.86
2018-08-07T04:20:17.091Z,17.89
2018-08-07T04:21:17.065Z,17.86
2018-08-07T04:22:17.096Z,17.98
2018-08-07T04:23:17.069Z,17.98
2018-08-07T04:24:17.074Z,17.97
2018-08-07T04:25:17.089Z,18.01
2018-08-07T04:26:17.284Z,18.03
2018-08-07T04:27:17.098Z,18.03
2018-08-07T04:28:17.292Z,18.07
2018-08-07T04:29:17.094Z,17.98
2018-08-07T04:30:17.095Z,18.00
2018-08-07T04:31:17.112Z,18.10
2018-08-07T04:32:17.107Z,18.00
2018-08-07T04:33:17.118Z,18.07
2018-08-07T04:34:17.135Z,18.01
2018-08-07T04:35:17.132Z,17.97
2018-08-07T04:36:17.134Z,18.04
2018-08-07T04:37:17.120Z,18.18
2018-08-07T04:38:17.124Z,18.13
2018-08-07T04:39:17.339Z,18.23
2018-08-07T04:40:17.369Z,18.28
2018-08-07T04:41:17.136Z,18.28
2018-08-07T04:42:17.353Z,18.29
2018-08-07T04:43:17.146Z,18.31
2018-08-07T04:44:17.148Z,18.29
2018-08-07T04:45:17.161Z,18.25
2018-08-07T04:46:17.179Z,18.37
2018-08-07T04:47:17.357Z,18.33
2018-08-07T04:48:17.376Z,18.37
2018-08-07T04:49:17.375Z,18.38
2018-08-07T04:50:17.169Z,18.35
2018-08-07T04:51:17.170Z,18.35
2018-08-07T04:52:17.173Z,18.26
2018-08-07T04:53:17.180Z,18.37
2018-08-07T04:54:17.184Z,18.35
2018-08-07T04:55:17.197Z,18.28
2018-08-07T04:56:17.393Z,18.33
2018-08-07T04:57:17.395Z,18.37
2018-08-07T04:58:17.400Z,18.34
2018-08-07T04:59:17.199Z,18.44
2018-08-07T05:00:17.207Z,18.44
2018-08-07T05:01:17.209Z,18.56
2018-08-07T05:02:17.213Z,18.60
2018-08-07T05:03:17.217Z,18.62
2018-08-07T05:04:17.436Z,18.65
2018-08-07T05:05:17.222Z,18.71
2018-08-07T05:06:17.224Z,18.73
2018-08-07T05:07:17.229Z,18.77
2018-08-07T05:08:17.232Z,18.77
2018-08-07T05:09:17.251Z,18.86
2018-08-07T05:10:17.507Z,18.84
2018-08-07T05:11:17.246Z,18.99
2018-08-07T05:12:17.245Z,18.93
2018-08-07T05:13:17.452Z,19.04
2018-08-07T05:14:17.308Z,19.07
2018-08-07T05:15:17.284Z,19.14
2018-08-07T05:16:17.272Z,19.22
2018-08-07T05:17:17.277Z,19.24
2018-08-07T05:18:17.288Z,19.27
2018-08-07T05:19:17.284Z,19.36
2018-08-07T05:20:17.293Z,19.41
2018-08-07T05:21:17.281Z,19.41
2018-08-07T05:22:17.296Z,19.45
2018-08-07T05:23:17.301Z,19.54
2018-08-07T05:24:17.291Z,19.48
2018-08-07T05:25:17.296Z,19.49
2018-08-07T05:26:17.514Z,19.55
2018-08-07T05:27:17.305Z,19.54
2018-08-07T05:28:17.307Z,19.52
2018-08-07T05:29:17.313Z,19.70
2018-08-07T05:30:17.316Z,19.56
2018-08-07T05:31:17.319Z,19.67
2018-08-07T05:32:17.324Z,19.69
2018-08-07T05:33:17.341Z,19.81
2018-08-07T05:34:17.534Z,19.71
2018-08-07T05:35:17.549Z,19.79
2018-08-07T05:36:17.340Z,19.84
2018-08-07T05:37:17.355Z,20.00
2018-08-07T05:38:17.375Z,20.04
2018-08-07T05:39:17.351Z,20.14
2018-08-07T05:40:17.572Z,20.24
2018-08-07T05:41:17.370Z,20.24
2018-08-07T05:42:17.681Z,20.29
2018-08-07T05:43:17.396Z,20.40
2018-08-07T05:44:17.388Z,20.40
2018-08-07T05:45:17.397Z,20.52
2018-08-07T05:46:17.381Z,20.52
2018-08-07T05:47:17.384Z,20.63
2018-08-07T05:48:17.590Z,20.66
2018-08-07T05:49:17.609Z,20.70
2018-08-07T05:50:17.531Z,20.78
2018-08-07T05:51:17.778Z,20.78
2018-08-07T05:52:17.407Z,20.82
2018-08-07T05:53:17.422Z,20.90
2018-08-07T05:54:17.424Z,20.99
2018-08-07T05:55:17.715Z,21.02
2018-08-07T05:56:17.440Z,21.14
2018-08-07T05:57:17.691Z,21.15
2018-08-07T05:58:17.434Z,21.22
2018-08-07T05:59:17.653Z,21.20
2018-08-07T06:00:17.442Z,21.33
2018-08-07T06:01:17.462Z,21.32
2018-08-07T06:02:17.454Z,21.35
2018-08-07T06:03:17.464Z,21.36
2018-08-07T06:04:17.663Z,21.45
2018-08-07T06:05:17.473Z,21.51
2018-08-07T06:06:17.681Z,21.45
2018-08-07T06:07:17.488Z,21.51
2018-08-07T06:08:17.479Z,21.69
2018-08-07T06:09:17.482Z,21.67
2018-08-07T06:10:17.487Z,21.73
2018-08-07T06:11:17.491Z,21.66
2018-08-07T06:12:17.495Z,21.72
2018-08-07T06:13:17.511Z,21.76
2018-08-07T06:14:17.516Z,21.85
2018-08-07T06:15:17.513Z,21.83
2018-08-07T06:16:17.526Z,21.88
2018-08-07T06:17:17.537Z,21.92
2018-08-07T06:18:17.743Z,21.93
2018-08-07T06:19:17.818Z,21.96
2018-08-07T06:20:17.736Z,22.00
2018-08-07T06:21:17.547Z,22.14
2018-08-07T06:22:17.576Z,21.99
2018-08-07T06:23:17.550Z,22.18
2018-08-07T06:24:17.556Z,22.10
2018-08-07T06:25:17.559Z,22.18
2018-08-07T06:26:17.568Z,22.25
2018-08-07T06:27:17.569Z,22.30
2018-08-07T06:28:17.583Z,22.47
2018-08-07T06:29:17.590Z,22.63
2018-08-07T06:30:17.596Z,22.68
2018-08-07T06:31:17.622Z,22.91
2018-08-07T06:32:17.615Z,22.98
2018-08-07T06:33:17.605Z,23.03
2018-08-07T06:34:17.628Z,23.18
2018-08-07T06:35:17.822Z,23.23
2018-08-07T06:36:17.816Z,23.31
2018-08-07T06:37:17.622Z,23.32
2018-08-07T06:38:17.628Z,23.39
2018-08-07T06:39:17.834Z,23.32
2018-08-07T06:40:17.840Z,23.34
2018-08-07T06:41:17.642Z,23.46
2018-08-07T06:42:17.674Z,23.50
2018-08-07T06:43:17.655Z,23.56
2018-08-07T06:44:17.876Z,23.62
2018-08-07T06:45:17.668Z,23.74
2018-08-07T06:46:17.681Z,23.68
2018-08-07T06:47:17.692Z,23.78
2018-08-07T06:48:17.696Z,23.78
2018-08-07T06:49:17.685Z,23.84
2018-08-07T06:50:17.717Z,23.95
2018-08-07T06:51:17.711Z,23.96
2018-08-07T06:52:17.928Z,23.93
2018-08-07T06:53:17.709Z,24.01
2018-08-07T06:54:17.917Z,24.05
2018-08-07T06:55:17.732Z,24.26
2018-08-07T06:56:17.938Z,24.45
2018-08-07T06:57:17.933Z,24.38
2018-08-07T06:58:17.965Z,24.57
2018-08-07T06:59:17.740Z,24.65
2018-08-07T07:00:17.980Z,24.88
2018-08-07T07:01:18.011Z,25.07
2018-08-07T07:02:17.758Z,25.22
2018-08-07T07:03:17.964Z,25.28
2018-08-07T07:04:17.768Z,25.38
2018-08-07T07:05:17.787Z,25.46
2018-08-07T07:06:17.782Z,25.65
2018-08-07T07:07:17.786Z,25.78
2018-08-07T07:08:17.994Z,25.90
2018-08-07T07:09:17.808Z,26.13
2018-08-07T07:10:18.009Z,26.37
2018-08-07T07:11:17.821Z,26.51
2018-08-07T07:12:17.819Z,26.60
2018-08-07T07:13:18.026Z,26.81
2018-08-07T07:14:18.045Z,26.99
2018-08-07T07:15:17.843Z,26.99
2018-08-07T07:16:18.044Z,26.93
2018-08-07T07:17:17.849Z,26.84
2018-08-07T07:18:17.878Z,26.95
2018-08-07T07:19:17.873Z,26.95
2018-08-07T07:20:17.903Z,26.95
2018-08-07T07:21:17.875Z,27.02
2018-08-07T07:22:17.908Z,27.10
2018-08-07T07:23:17.916Z,27.05
2018-08-07T07:24:18.112Z,27.08
2018-08-07T07:25:17.900Z,27.10
2018-08-07T07:26:17.916Z,27.08
2018-08-07T07:27:17.924Z,27.15
2018-08-07T07:28:18.123Z,27.25
2018-08-07T07:29:17.944Z,27.39
2018-08-07T07:30:18.141Z,27.40
2018-08-07T07:31:18.142Z,27.64
2018-08-07T07:32:18.149Z,27.85
2018-08-07T07:33:17.969Z,27.92
2018-08-07T07:34:17.983Z,27.98
2018-08-07T07:35:17.984Z,27.96
2018-08-07T07:36:17.988Z,27.93
2018-08-07T07:37:17.985Z,28.02
2018-08-07T07:38:18.223Z,28.17
2018-08-07T07:39:17.998Z,28.25
2018-08-07T07:40:18.223Z,28.45
2018-08-07T07:41:18.013Z,28.62
2018-08-07T07:42:18.224Z,28.82
2018-08-07T07:43:18.230Z,29.31
2018-08-07T07:44:18.040Z,29.54
2018-08-07T07:45:18.251Z,29.68
2018-08-07T07:46:18.254Z,29.97
2018-08-07T07:47:18.260Z,30.13
2018-08-07T07:48:18.266Z,30.18
2018-08-07T07:49:18.291Z,30.19
2018-08-07T07:50:18.080Z,30.30
2018-08-07T07:51:18.090Z,30.27
2018-08-07T07:52:18.096Z,30.15
2018-08-07T07:53:18.119Z,30.24
2018-08-07T07:54:18.133Z,30.31
2018-08-07T07:55:18.117Z,30.31
2018-08-07T07:56:18.128Z,30.31
2018-08-07T07:57:18.146Z,30.21
2018-08-07T07:58:18.145Z,30.16
2018-08-07T07:59:18.162Z,30.21
2018-08-07T08:00:18.359Z,30.10
2018-08-07T08:01:18.164Z,29.91
2018-08-07T08:02:18.171Z,29.78
2018-08-07T08:03:18.193Z,29.63
2018-08-07T08:04:18.185Z,29.61
2018-08-07T08:05:18.323Z,29.57
2018-08-07T08:06:18.204Z,29.57
2018-08-07T08:07:18.421Z,29.59
2018-08-07T08:08:18.419Z,29.59
2018-08-07T08:09:18.240Z,29.63
2018-08-07T08:10:18.248Z,29.75
2018-08-07T08:11:18.259Z,29.79
2018-08-07T08:12:18.271Z,29.90
2018-08-07T08:13:18.270Z,29.93
2018-08-07T08:14:18.267Z,29.98
2018-08-07T08:15:18.275Z,30.00
2018-08-07T08:16:18.502Z,29.90
2018-08-07T08:17:18.296Z,29.71
2018-08-07T08:18:18.494Z,29.73
2018-08-07T08:19:18.320Z,29.66
2018-08-07T08:20:18.519Z,29.57
2018-08-07T08:21:18.316Z,29.71
2018-08-07T08:22:18.326Z,29.71
2018-08-07T08:23:18.353Z,29.78
2018-08-07T08:24:18.351Z,29.82
2018-08-07T08:25:18.359Z,29.98
2018-08-07T08:26:18.374Z,30.02
2018-08-07T08:27:18.574Z,30.10
2018-08-07T08:28:18.388Z,30.09
2018-08-07T08:29:18.432Z,30.08
2018-08-07T08:30:18.385Z,30.00
2018-08-07T08:31:18.599Z,29.87
2018-08-07T08:32:18.403Z,29.73
2018-08-07T08:33:18.412Z,29.84
2018-08-07T08:34:18.420Z,29.97
2018-08-07T08:35:18.542Z,29.86
2018-08-07T08:36:18.438Z,29.79
2018-08-07T08:37:18.660Z,29.72
2018-08-07T08:38:18.499Z,29.69
2018-08-07T08:39:18.475Z,29.65
2018-08-07T08:40:18.475Z,29.65
2018-08-07T08:41:18.486Z,29.53
2018-08-07T08:42:18.491Z,29.54
2018-08-07T08:43:18.512Z,29.56
2018-08-07T08:44:18.731Z,29.41
2018-08-07T08:45:18.721Z,29.35
2018-08-07T08:46:18.530Z,29.53
2018-08-07T08:47:18.750Z,29.63
2018-08-07T08:48:18.582Z,29.71
2018-08-07T08:49:18.774Z,29.76
2018-08-07T08:50:18.582Z,30.00
2018-08-07T08:51:18.580Z,30.09
2018-08-07T08:52:18.618Z,30.21
2018-08-07T08:53:18.798Z,30.39
2018-08-07T08:54:18.620Z,30.46
2018-08-07T08:55:18.836Z,30.61
2018-08-07T08:56:18.628Z,30.63
2018-08-07T08:57:18.862Z,30.55
2018-08-07T08:58:18.859Z,30.53
2018-08-07T08:59:18.858Z,30.47
2018-08-07T09:00:18.877Z,30.51
2018-08-07T09:01:18.877Z,30.46
2018-08-07T09:02:18.715Z,30.57
2018-08-07T09:03:18.942Z,30.73
2018-08-07T09:04:18.907Z,31.03
2018-08-07T09:05:18.740Z,31.33
2018-08-07T09:06:18.736Z,31.52
2018-08-07T09:07:18.744Z,31.28
2018-08-07T09:08:18.967Z,31.33
2018-08-07T09:09:18.751Z,31.40
2018-08-07T09:10:18.821Z,31.56
2018-08-07T09:11:18.825Z,31.51
2018-08-07T09:12:18.779Z,31.44
2018-08-07T09:13:18.796Z,31.31
2018-08-07T09:14:18.805Z,31.24
2018-08-07T09:15:18.815Z,31.17
2018-08-07T09:16:18.812Z,31.02
2018-08-07T09:17:18.819Z,31.06
2018-08-07T09:18:18.837Z,31.24
2018-08-07T09:19:18.850Z,31.25
2018-08-07T09:20:18.864Z,31.36
2018-08-07T09:21:19.057Z,31.44
2018-08-07T09:22:18.885Z,31.51
2018-08-07T09:23:19.076Z,31.49
2018-08-07T09:24:18.881Z,31.47
2018-08-07T09:25:19.218Z,31.31
2018-08-07T09:26:19.130Z,31.21
2018-08-07T09:27:18.906Z,31.10
2018-08-07T09:28:18.930Z,30.90
2018-08-07T09:29:18.925Z,30.68
2018-08-07T09:30:18.943Z,30.43
2018-08-07T09:31:19.143Z,30.25
2018-08-07T09:32:18.964Z,30.27
2018-08-07T09:33:18.972Z,30.28
2018-08-07T09:34:18.969Z,30.31
2018-08-07T09:35:18.986Z,30.32
2018-08-07T09:36:18.981Z,30.16
2018-08-07T09:37:18.989Z,30.19
2018-08-07T09:38:19.000Z,29.95
2018-08-07T09:39:19.004Z,29.91
2018-08-07T09:40:19.014Z,29.75
2018-08-07T09:41:19.022Z,29.66
2018-08-07T09:42:19.232Z,29.94
2018-08-07T09:43:19.254Z,30.19
2018-08-07T09:44:19.046Z,30.59
2018-08-07T09:45:19.056Z,30.72
2018-08-07T09:46:19.263Z,30.77
2018-08-07T09:47:19.084Z,30.78
2018-08-07T09:48:19.076Z,30.77
2018-08-07T09:49:19.287Z,30.61
2018-08-07T09:50:19.094Z,30.37
2018-08-07T09:51:19.316Z,30.19
2018-08-07T09:52:19.154Z,30.05
2018-08-07T09:53:19.128Z,29.94
2018-08-07T09:54:19.327Z,29.82
2018-08-07T09:55:19.134Z,29.69
2018-08-07T09:56:19.152Z,29.69
2018-08-07T09:57:19.165Z,29.54
2018-08-07T09:58:19.157Z,29.71
2018-08-07T09:59:19.168Z,29.95
2018-08-07T10:00:19.172Z,30.16
2018-08-07T10:01:19.195Z,30.16
2018-08-07T10:02:19.188Z,30.02
2018-08-07T10:03:19.401Z,29.93
2018-08-07T10:04:19.203Z,29.82
2018-08-07T10:05:19.289Z,29.69
2018-08-07T10:06:19.220Z,29.59
2018-08-07T10:07:19.446Z,29.59
2018-08-07T10:08:19.250Z,29.53
2018-08-07T10:09:19.256Z,29.42
2018-08-07T10:10:19.480Z,29.36
2018-08-07T10:11:19.276Z,29.38
2018-08-07T10:12:19.272Z,29.38
2018-08-07T10:13:19.477Z,29.49
2018-08-07T10:14:19.284Z,29.53
2018-08-07T10:15:19.492Z,29.61
2018-08-07T10:16:19.299Z,29.69
2018-08-07T10:17:19.325Z,29.71
2018-08-07T10:18:19.517Z,29.82
2018-08-07T10:19:19.324Z,30.00
2018-08-07T10:20:19.334Z,30.05
2018-08-07T10:21:19.354Z,29.88
2018-08-07T10:22:19.346Z,29.79
2018-08-07T10:23:19.613Z,29.54
2018-08-07T10:24:19.390Z,29.72
2018-08-07T10:25:19.370Z,29.65
2018-08-07T10:26:19.590Z,29.68
2018-08-07T10:27:19.389Z,29.81
2018-08-07T10:28:19.624Z,29.86
2018-08-07T10:29:19.615Z,29.88
2018-08-07T10:30:19.636Z,29.90
2018-08-07T10:31:19.421Z,29.73
2018-08-07T10:32:19.427Z,29.56
2018-08-07T10:33:19.652Z,29.59
2018-08-07T10:34:19.468Z,29.63
2018-08-07T10:35:19.447Z,30.02
2018-08-07T10:36:19.455Z,30.54
2018-08-07T10:37:19.464Z,31.12
2018-08-07T10:38:19.480Z,31.27
2018-08-07T10:39:19.495Z,31.22
2018-08-07T10:40:19.491Z,31.25
2018-08-07T10:41:19.549Z,31.37
2018-08-07T10:42:19.513Z,31.54
2018-08-07T10:43:19.832Z,31.84
2018-08-07T10:44:19.585Z,31.99
2018-08-07T10:45:19.729Z,32.15
2018-08-07T10:46:19.738Z,32.31
2018-08-07T10:47:19.755Z,32.21
2018-08-07T10:48:19.561Z,32.12
2018-08-07T10:49:19.558Z,32.08
2018-08-07T10:50:19.781Z,31.84
2018-08-07T10:51:19.572Z,32.09
2018-08-07T10:52:19.613Z,32.00
2018-08-07T10:53:19.590Z,32.14
2018-08-07T10:54:19.810Z,32.37
2018-08-07T10:55:19.612Z,32.29
2018-08-07T10:56:19.620Z,32.19
2018-08-07T10:57:19.623Z,31.96
2018-08-07T10:58:19.700Z,31.93
2018-08-07T10:59:19.667Z,31.64
2018-08-07T11:00:19.658Z,31.51
2018-08-07T11:01:19.686Z,31.39
2018-08-07T11:02:19.678Z,31.31
2018-08-07T11:03:19.898Z,31.37
2018-08-07T11:04:19.885Z,31.36
2018-08-07T11:05:19.688Z,31.33
2018-08-07T11:06:19.900Z,31.29
2018-08-07T11:07:19.715Z,31.07
2018-08-07T11:08:19.741Z,30.96
2018-08-07T11:09:19.731Z,30.92
2018-08-07T11:10:19.740Z,31.05
2018-08-07T11:11:19.769Z,31.17
2018-08-07T11:12:19.744Z,31.43
2018-08-07T11:13:19.762Z,31.66
2018-08-07T11:14:19.779Z,31.87
2018-08-07T11:15:19.782Z,31.69
2018-08-07T11:16:19.987Z,31.66
2018-08-07T11:17:19.784Z,31.44
2018-08-07T11:18:19.807Z,31.34
2018-08-07T11:19:19.811Z,31.21
2018-08-07T11:20:19.822Z,31.12
2018-08-07T11:21:19.819Z,31.20
2018-08-07T11:22:19.824Z,31.21
2018-08-07T11:23:19.833Z,31.22
2018-08-07T11:24:20.078Z,31.31
2018-08-07T11:25:20.050Z,31.31
2018-08-07T11:26:19.858Z,31.49
2018-08-07T11:27:19.869Z,31.40
2018-08-07T11:28:19.907Z,31.33
2018-08-07T11:29:19.911Z,31.22
2018-08-07T11:30:19.902Z,31.20
2018-08-07T11:31:19.900Z,31.27
2018-08-07T11:32:19.921Z,31.10
2018-08-07T11:33:19.914Z,31.05
2018-08-07T11:34:19.935Z,31.05
2018-08-07T11:35:19.942Z,30.99
2018-08-07T11:36:19.938Z,30.87
2018-08-07T11:37:20.150Z,30.91
2018-08-07T11:38:19.967Z,30.97
2018-08-07T11:39:19.978Z,31.21
2018-08-07T11:40:19.986Z,31.17
2018-08-07T11:41:20.047Z,31.33
2018-08-07T11:42:19.999Z,31.40
2018-08-07T11:43:20.011Z,31.34
2018-08-07T11:44:20.005Z,31.42
2018-08-07T11:45:20.015Z,31.42
2018-08-07T11:46:20.035Z,31.44
2018-08-07T11:47:20.030Z,31.28
2018-08-07T11:48:20.111Z,31.27
2018-08-07T11:49:20.058Z,31.21
2018-08-07T11:50:20.055Z,31.34
2018-08-07T11:51:20.092Z,31.25
2018-08-07T11:52:20.069Z,31.21
2018-08-07T11:53:20.093Z,31.44
2018-08-07T11:54:20.309Z,31.43
2018-08-07T11:55:20.297Z,31.40
2018-08-07T11:56:20.145Z,31.51
2018-08-07T11:57:20.113Z,31.44
2018-08-07T11:58:20.120Z,31.33
2018-08-07T11:59:20.130Z,31.18
2018-08-07T12:00:20.139Z,31.14
2018-08-07T12:01:20.176Z,31.10
2018-08-07T12:02:20.215Z,31.14
2018-08-07T12:03:20.162Z,31.25
2018-08-07T12:04:20.171Z,31.33
2018-08-07T12:05:20.379Z,31.28
2018-08-07T12:06:20.192Z,31.34
2018-08-07T12:07:20.198Z,31.36
2018-08-07T12:08:20.202Z,31.29
2018-08-07T12:09:20.211Z,31.28
2018-08-07T12:10:20.221Z,31.31
2018-08-07T12:11:20.225Z,31.15
2018-08-07T12:12:20.235Z,31.02
2018-08-07T12:13:20.271Z,31.27
2018-08-07T12:14:20.456Z,31.46
2018-08-07T12:15:20.260Z,31.37
2018-08-07T12:16:20.371Z,31.31
2018-08-07T12:17:20.287Z,31.40
2018-08-07T12:18:20.486Z,31.40
2018-08-07T12:19:20.493Z,31.40
2018-08-07T12:20:20.301Z,31.29
2018-08-07T12:21:20.310Z,31.49
2018-08-07T12:22:20.329Z,31.54
2018-08-07T12:23:20.336Z,31.51
2018-08-07T12:24:20.343Z,31.31
2018-08-07T12:25:20.354Z,31.55
2018-08-07T12:26:20.350Z,31.59
2018-08-07T12:27:20.585Z,31.49
2018-08-07T12:28:20.367Z,31.61
2018-08-07T12:29:20.387Z,31.64
2018-08-07T12:30:20.384Z,31.55
2018-08-07T12:31:20.591Z,31.44
2018-08-07T12:32:20.400Z,31.42
2018-08-07T12:33:20.608Z,31.20
2018-08-07T12:34:20.417Z,31.25
2018-08-07T12:35:20.450Z,31.49
2018-08-07T12:36:20.432Z,31.52
2018-08-07T12:37:20.441Z,31.69
2018-08-07T12:38:20.653Z,31.64
2018-08-07T12:39:20.457Z,31.73
2018-08-07T12:40:20.468Z,31.77
2018-08-07T12:41:20.568Z,31.70
2018-08-07T12:42:20.694Z,31.93
2018-08-07T12:43:20.496Z,31.96
2018-08-07T12:44:20.499Z,31.93
2018-08-07T12:45:20.721Z,31.96
2018-08-07T12:46:20.718Z,32.01
2018-08-07T12:47:20.524Z,31.93
2018-08-07T12:48:20.544Z,31.94
2018-08-07T12:49:20.742Z,31.87
2018-08-07T12:50:20.551Z,31.64
2018-08-07T12:51:20.561Z,31.64
2018-08-07T12:52:20.566Z,31.62